Terminal Aerodrome Forecast
Issued by NWS

Home | Current Version | Previous Version | Graphics & Text | Print | Product List | Glossary On
Versions: 1 2 3 4 5 6 7 8 9 10 11 12 13 14 15 16 17
000
FTUS43 KTOP 141720
TAFFOE
TAF
KFOE 141720Z 1418/1518 19013KT P6SM -SHRA SCT050 BKN090
      TEMPO 1418/1420 3SM -TSRA BKN040CB
     FM142200 23013KT P6SM VCTS OVC040CB
      TEMPO 1423/1501 3SM -TSRA BKN025CB
     FM150200 32018G25KT P6SM VCSH BKN025
     FM150600 32019G28KT P6SM BKN040
     FM151100 31011KT P6SM FEW250=

USA.gov is the U.S. government's official web portal to all federal, state and local government web resources and services.